Latest Weather Observations for Dennes Point

IDT60901

Issued at 3:35 pm EDT Thursday 23 October 2014 (issued every 10 minutes, with the page automatically refreshed every 10 minutes)

About weather observations | Map of Hobart area stations | Latest observations for Hobart area | Other Formats
Station Details ID: 094255 Name: DENNES POINT Lat: -43.06 Lon: 147.36 Height: 5.67 m
Data from the previous 72 hours. | See also: Recent months at Dennes Point
Date/Time
EDT
Tmp

°C
App
Tmp
°C
Dew
Point
°C
Rel
Hum
%
Delta-T

°C
Wind Press
QNH
hPa
Press
MSL
hPa
Rain
since
9 am
mm
Dir
 
Spd
km/h
Gust
km/h
Spd
kts
Gust
kts
23/03:30pm 13.9 9.6 5.3 56 4.0 ESE 17 20 9 11 1025.1 1025.1 0.0
23/03:00pm 13.8 9.5 5.4 57 3.9 ESE 17 24 9 13 1025.3 1025.3 0.0
23/02:30pm 13.9 9.7 5.5 57 4.0 ESE 17 22 9 12 1025.6 1025.6 0.0
23/02:00pm 13.9 9.6 5.3 56 4.0 ESE 17 20 9 11 1025.7 1025.7 0.0
23/01:30pm 13.8 10.2 4.9 55 4.1 ESE 13 17 7 9 1025.9 1025.9 0.0
23/01:00pm 13.8 9.4 4.9 55 4.1 ESE 17 24 9 13 1025.8 1025.8 0.0
23/12:30pm 13.9 9.9 5.0 55 4.1 ESE 15 20 8 11 1026.1 1026.1 0.0
23/12:00pm 13.9 9.9 5.0 55 4.1 ESE 15 19 8 10 1026.4 1026.4 0.0
23/11:30am 13.8 10.2 4.9 55 4.1 E 13 19 7 10 1026.7 1026.7 0.0
23/11:00am 13.4 9.8 4.8 56 3.9 ESE 13 20 7 11 1026.7 1026.7 0.0
23/10:30am 12.8 9.6 5.0 59 3.6 E 11 19 6 10 1026.6 1026.6 0.0
23/10:00am 12.7 9.5 4.9 59 3.6 ESE 11 19 6 10 1026.6 1026.6 0.0
23/09:30am 11.8 8.4 4.1 59 3.5 SW 11 15 6 8 1026.4 1026.4 0.0
23/09:00am 11.9 9.3 4.4 60 3.4 S 7 13 4 7 1026.4 1026.4 0.0
23/08:30am 11.3 8.3 4.1 61 3.2 SSW 9 17 5 9 1026.2 1026.2 0.0
23/08:00am 11.2 8.2 4.2 62 3.1 SSW 9 15 5 8 1025.8 1025.8 0.0
23/07:30am 10.6 7.2 3.9 63 3.0 SSW 11 17 6 9 1025.4 1025.4 0.0
23/07:00am 10.4 7.5 4.5 67 2.6 S 9 13 5 7 1024.9 1024.9 0.0
23/06:30am 10.3 7.4 4.9 69 2.4 S 9 17 5 9 1024.3 1024.3 0.0
23/06:00am 10.4 7.6 5.0 69 2.4 S 9 15 5 8 1023.9 1023.9 0.0
23/05:30am 10.5 8.3 5.5 71 2.3 S 6 11 3 6 1023.3 1023.3 0.0
23/05:00am 10.8 8.1 5.6 70 2.4 SSW 9 15 5 8 1022.9 1022.9 0.0
23/04:30am 10.9 8.6 5.7 70 2.4 SSW 7 15 4 8 1022.6 1022.6 0.0
23/04:00am 11.0 8.3 5.7 70 2.4 S 9 15 5 8 1022.4 1022.4 0.0
23/03:30am 10.9 8.1 6.8 76 1.9 S 11 19 6 10 1022.3 1022.3 0.0
23/03:00am 10.9 7.5 7.6 80 1.6 SSW 15 30 8 16 1022.3 1022.3 0.0
23/02:30am 11.3 7.0 7.2 76 2.0 SSW 19 28 10 15 1022.2 1022.2 0.0
23/02:00am 11.1 7.3 7.4 78 1.8 SSW 17 30 9 16 1022.0 1022.0 0.0
23/01:30am 11.2 7.2 8.4 83 1.4 SSW 19 33 10 18 1021.7 1021.7 0.0
23/01:00am 11.7 6.6 9.3 85 1.2 SSW 26 37 14 20 1021.5 1021.5 0.0
23/12:30am 12.3 8.8 10.2 87 1.1 SSW 19 30 10 16 1021.5 1021.5 0.0
23/12:00am 13.1 9.1 10.5 84 1.3 S 22 35 12 19 1021.0 1021.0 0.0
 
Date/Time
EDT
Tmp

°C
App
Tmp
°C
Dew
Point
°C
Rel
Hum
%
Delta-T

°C
Wind Press
QNH
hPa
Press
MSL
hPa
Rain
since
9 am
mm
Dir
 
Spd
km/h
Gust
km/h
Spd
kts
Gust
kts
22/11:30pm 13.7 9.0 9.4 75 2.2 SSW 24 35 13 19 1020.2 1020.2 0.0
22/11:00pm 13.5 8.6 9.9 79 1.8 S 26 39 14 21 1020.0 1020.0 0.0
22/10:30pm 13.7 8.4 9.9 78 2.0 S 28 43 15 23 1019.5 1019.5 0.0
22/10:00pm 13.7 8.2 10.5 81 1.7 S 30 41 16 22 1018.8 1018.8 0.0
22/09:30pm 14.3 11.4 10.9 80 1.8 SSW 17 35 9 19 1018.5 1018.5 0.0
22/09:00pm 15.2 13.1 11.2 77 2.1 S 13 22 7 12 1018.0 1018.0 0.0
22/08:30pm 14.3 13.0 10.1 76 2.2 SW 7 9 4 5 1017.3 1017.3 0.0
22/08:00pm 14.2 13.3 11.5 84 1.4 SE 7 13 4 7 1016.5 1016.5 0.0
22/07:30pm 14.8 13.7 10.6 76 2.2 SE 7 11 4 6 1016.1 1016.1 0.0
22/07:00pm 16.5 15.0 8.5 59 4.1 W 6 9 3 5 1015.5 1015.5 0.0
22/06:30pm 16.0 14.2 9.4 65 3.4 SSE 9 20 5 11 1014.9 1014.9 0.0
22/06:00pm 16.6 14.4 9.3 62 3.8 ESE 11 17 6 9 1014.2 1014.2 0.0
22/05:30pm 18.3 15.9 6.8 47 5.7 SSW 9 19 5 10 1014.4 1014.4 0.0
22/05:00pm 17.9 15.6 10.3 61 4.0 SW 13 17 7 9 1014.1 1014.1 0.0
22/04:30pm 18.9 17.5 8.8 52 5.3 SSE 6 11 3 6 1013.4 1013.4 0.0
22/04:00pm 19.3 17.5 8.0 48 5.8 E 7 13 4 7 1014.0 1014.0 0.0
22/03:30pm 19.8 16.8 9.1 50 5.6 SE 15 22 8 12 1013.8 1013.8 0.0
22/03:00pm 22.3 19.8 8.1 40 7.5 ESE 11 13 6 7 1013.9 1013.9 0.0
22/02:30pm 20.1 17.7 8.8 48 5.9 ESE 11 15 6 8 1014.0 1014.0 0.0
22/02:00pm 19.7 17.2 9.6 52 5.4 ESE 13 17 7 9 1014.2 1014.2 0.0
22/01:30pm 20.5 17.6 9.7 50 5.8 ESE 15 19 8 10 1014.7 1014.7 0.0
22/01:00pm 19.9 18.6 7.6 45 6.3 NNE 4 6 2 3 1015.0 1015.0 0.0
22/12:30pm 18.6 17.5 9.9 57 4.6 NNE 6 7 3 4 1015.6 1015.6 0.0
22/12:00pm 17.5 15.0 9.7 60 4.1 N 13 15 7 8 1016.0 1016.0 0.0
22/11:30am 16.7 13.6 8.7 59 4.1 N 15 19 8 10 1016.7 1016.7 0.0
22/11:00am 16.1 11.8 7.8 58 4.2 N 20 26 11 14 1017.1 1017.1 0.0
22/10:30am 15.4 10.8 8.2 62 3.6 N 22 30 12 16 1017.6 1017.6 0.0
22/10:00am 15.1 11.3 7.4 60 3.8 NNE 17 20 9 11 1018.1 1018.1 0.0
22/09:30am 14.0 10.1 7.3 64 3.3 N 17 24 9 13 1018.5 1018.5 0.0
22/09:00am 13.4 9.0 7.4 67 2.9 N 20 26 11 14 1018.5 1018.5 0.0
22/08:30am 12.9 8.0 7.1 68 2.8 N 22 26 12 14 1018.8 1018.8 0.0
22/08:00am 11.5 10.0 7.0 74 2.1 WSW 4 7 2 4 1019.3 1019.3 0.0
22/07:30am 11.9 10.1 7.0 72 2.3 N 6 15 3 8 1019.1 1019.1 0.0
22/07:00am 11.6 9.5 5.9 68 2.6 NNE 6 11 3 6 1019.3 1019.3 0.0
22/06:30am 9.8 8.6 6.5 80 1.5 E 2 7 1 4 1019.6 1019.6 0.0
22/06:00am 12.2 5.5 7.5 73 2.3 N 32 39 17 21 1019.6 1019.6 0.0
22/05:43am 12.3 5.6 7.2 71 2.5 N 32 39 17 21 1019.7 1019.7 0.0
22/05:30am 11.5 8.9 6.2 70 2.5 NNW 9 19 5 10 1019.9 1019.9 0.0
22/05:00am 11.9 7.9 6.8 71 2.4 N 17 28 9 15 1020.1 1020.1 0.0
22/04:30am 12.3 6.0 7.4 72 2.4 N 30 39 16 21 1020.6 1020.6 0.0
22/04:00am 12.5 5.3 7.6 72 2.4 N 35 43 19 23 1020.8 1020.8 0.0
22/03:30am 12.6 6.1 8.1 74 2.2 N 32 43 17 23 1021.4 1021.4 0.0
22/03:00am 12.7 6.6 8.2 74 2.2 NNE 30 35 16 19 1022.1 1022.1 0.0
22/02:30am 12.9 7.6 8.4 74 2.2 N 26 32 14 17 1022.7 1022.7 0.0
22/02:00am 12.8 8.6 8.1 73 2.3 N 20 28 11 15 1023.1 1023.1 0.0
22/01:30am 13.2 8.7 8.7 74 2.3 N 22 26 12 14 1023.4 1023.4 0.0
22/01:00am 12.8 10.9 8.9 77 1.9 NNW 9 13 5 7 1024.0 1024.0 0.0
22/12:30am 13.1 10.7 8.8 75 2.2 N 11 15 6 8 1024.3 1024.3 0.0
22/12:00am 12.0 11.4 8.8 81 1.6 NNW 2 6 1 3 1024.8 1024.8 0.0
 
Date/Time
EDT
Tmp

°C
App
Tmp
°C
Dew
Point
°C
Rel
Hum
%
Delta-T

°C
Wind Press
QNH
hPa
Press
MSL
hPa
Rain
since
9 am
mm
Dir
 
Spd
km/h
Gust
km/h
Spd
kts
Gust
kts
21/11:30pm 12.9 10.0 9.7 81 1.6 NNE 15 19 8 10 1025.2 1025.2 0.0
21/11:00pm 12.9 10.4 9.7 81 1.6 NNE 13 19 7 10 1025.5 1025.5 0.0
21/10:30pm 12.8 9.8 9.4 80 1.7 NE 15 19 8 10 1025.9 1025.9 0.0
21/10:00pm 13.1 9.4 9.4 78 1.9 NE 19 22 10 12 1026.3 1026.3 0.0
21/09:30pm 13.0 10.3 9.1 77 2.0 NE 13 17 7 9 1026.8 1026.8 0.0
21/09:00pm 13.1 11.7 9.4 78 1.9 NE 7 13 4 7 1026.9 1026.9 0.0
21/08:30pm 12.8 11.4 8.7 76 2.0 ESE 6 9 3 5 1026.8 1026.8 0.0
21/08:00pm 13.4 11.2 9.5 77 2.0 ENE 11 13 6 7 1026.9 1026.9 0.0
21/07:30pm 13.5 11.8 9.7 78 1.9 E 9 11 5 6 1027.1 1027.1 0.0
21/07:00pm 14.2 11.3 9.8 75 2.3 E 15 20 8 11 1027.3 1027.3 0.0
21/06:30pm 14.7 9.7 9.7 72 2.6 ENE 26 32 14 17 1027.2 1027.2 0.0
21/06:00pm 14.9 8.7 9.3 69 2.9 ENE 32 35 17 19 1027.4 1027.4 0.0
21/05:30pm 15.2 8.9 9.1 67 3.1 ENE 32 37 17 20 1027.7 1027.7 0.0
21/05:00pm 15.5 9.2 9.0 65 3.3 E 32 37 17 20 1027.7 1027.7 0.0
21/04:30pm 15.8 9.5 9.0 64 3.5 E 32 35 17 19 1027.8 1027.8 0.0
21/04:00pm 16.2 10.6 8.7 61 3.8 ENE 28 33 15 18 1028.5 1028.5 0.0
21/03:30pm 16.3 11.5 8.8 61 3.8 E 24 30 13 16 1028.9 1028.9 0.0
21/03:00pm 16.3 11.1 9.0 62 3.7 E 26 30 14 16 1029.2 1029.2 0.0
21/02:30pm 16.2 11.0 8.9 62 3.7 E 26 30 14 16 1029.9 1029.9 0.0
21/02:00pm 16.3 11.2 9.3 63 3.6 E 26 30 14 16 1030.4 1030.4 0.0
21/01:30pm 16.1 11.7 8.8 62 3.7 E 22 26 12 14 1030.9 1030.9 0.0
21/01:00pm 15.9 12.1 7.4 57 4.2 E 17 20 9 11 1031.2 1031.2 0.0
21/12:30pm 15.7 13.4 5.9 52 4.7 E 7 9 4 5 1031.7 1031.7 0.0
21/12:00pm 15.3 12.7 6.1 54 4.4 NE 9 11 5 6 1032.2 1032.2 0.0
21/11:30am 14.1 11.0 5.5 56 4.1 NNE 11 15 6 8 1032.4 1032.4 0.0
21/11:00am 13.8 9.2 5.4 57 3.9 NNE 19 22 10 12 1032.9 1032.9 0.0
21/10:30am 12.8 10.5 5.5 61 3.4 N 7 11 4 6 1033.2 1033.2 0.0
21/10:00am 12.3 10.1 5.2 62 3.2 N 6 7 3 4 1033.4 1033.4 0.0
21/09:30am 11.1 8.2 4.8 65 2.9 NNE 9 11 5 6 1033.6 1033.6 0.0
21/09:00am 10.7 9.3 5.5 70 2.4 NNE 2 6 1 3 1033.8 1033.8 0.0
21/08:30am 9.6 7.8 5.4 75 1.9 W 4 6 2 3 1033.8 1033.8 0.0
21/08:00am 9.1 7.0 5.7 79 1.5 SW 6 7 3 4 1033.8 1033.8 0.0
21/07:30am 8.8 5.6 5.0 77 1.7 N 11 19 6 10 1033.6 1033.6 0.0
21/07:00am 8.2 5.9 4.8 79 1.5 NNW 6 7 3 4 1033.6 1033.6 0.0
21/06:30am 7.1 5.5 4.4 83 1.2 NW 2 7 1 4 1033.3 1033.3 0.0
21/06:00am 6.2 3.7 3.9 85 1.0 S 6 7 3 4 1033.1 1033.1 0.0
21/05:30am 8.7 5.5 4.9 77 1.7 N 11 17 6 9 1033.0 1033.0 0.0
21/05:00am 9.1 6.0 5.5 78 1.6 N 11 17 6 9 1033.0 1033.0 0.0
21/04:30am 9.5 6.5 6.0 79 1.6 N 11 15 6 8 1032.9 1032.9 0.0
21/04:00am 9.5 5.9 4.9 73 2.0 NNE 13 17 7 9 1033.0 1033.0 0.0
21/03:30am 9.6 5.2 4.6 71 2.2 NNE 17 20 9 11 1033.0 1033.0 0.0
21/03:00am 9.8 5.4 4.8 71 2.2 NNE 17 19 9 10 1033.3 1033.3 0.0
21/02:30am 10.1 5.8 5.1 71 2.3 NNE 17 22 9 12 1033.3 1033.3 0.0
21/02:00am 10.2 6.3 5.2 71 2.2 NNE 15 19 8 10 1033.6 1033.6 0.0
21/01:30am 10.3 6.0 5.1 70 2.4 NNE 17 22 9 12 1033.8 1033.8 0.0
21/01:00am 10.4 6.1 5.4 71 2.3 NNE 17 20 9 11 1034.0 1034.0 0.0
21/12:30am 10.6 6.7 5.4 70 2.4 NNE 15 19 8 10 1034.4 1034.4 0.0
21/12:00am 10.5 6.6 5.5 71 2.3 NNE 15 17 8 9 1034.7 1034.7 0.0
 
Date/Time
EDT
Tmp

°C
App
Tmp
°C
Dew
Point
°C
Rel
Hum
%
Delta-T

°C
Wind Press
QNH
hPa
Press
MSL
hPa
Rain
since
9 am
mm
Dir
 
Spd
km/h
Gust
km/h
Spd
kts
Gust
kts
20/11:30pm 10.5 7.6 4.4 66 2.7 NE 9 13 5 7 1034.9 1034.9 0.0
20/11:00pm 9.8 8.4 3.3 64 2.8 CALM 0 0 0 0 1035.3 1035.3 0.0
20/10:30pm 9.6 7.9 4.0 68 2.5 S 2 4 1 2 1035.5 1035.5 0.0
20/10:00pm 9.7 8.0 3.9 67 2.5 S 2 4 1 2 1035.5 1035.5 0.0
20/09:30pm 9.7 8.0 4.1 68 2.5 S 2 6 1 3 1035.6 1035.6 0.0
20/09:00pm 9.8 8.6 4.6 70 2.3 CALM 0 2 0 1 1035.4 1035.4 0.0
20/08:30pm 9.9 7.5 4.3 68 2.5 SSE 6 7 3 4 1035.3 1035.3 0.0
20/08:00pm 9.9 8.3 4.5 69 2.4 S 2 6 1 3 1034.9 1034.9 0.0
20/07:30pm 10.0 7.5 4.0 66 2.6 SSE 6 9 3 5 1034.4 1034.4 0.0
20/07:00pm 10.4 7.4 4.1 65 2.8 SSE 9 15 5 8 1034.3 1034.3 0.0
20/06:30pm 10.6 7.6 4.3 65 2.8 SE 9 15 5 8 1034.1 1034.1 0.0
20/06:00pm 10.9 6.4 4.1 63 3.0 ESE 17 22 9 12 1033.9 1033.9 0.0
20/05:30pm 11.3 6.9 4.5 63 3.1 ESE 17 22 9 12 1034.0 1034.0 0.0
20/05:00pm 12.5 8.0 4.0 56 3.8 ESE 17 22 9 12 1033.8 1033.8 0.0
20/04:30pm 12.4 7.8 3.9 56 3.8 ESE 17 22 9 12 1033.8 1033.8 0.0
20/04:00pm 13.1 8.3 4.8 57 3.8 ESE 19 24 10 13 1033.8 1033.8 0.0

Latest Capital City Observations: Canberra | Sydney | Melbourne | Brisbane | Adelaide | Perth | Hobart | Darwin

Other Formats:

Comma delimited format used in spreadsheet applications
http://www.bom.gov.au/fwo/IDT60901/IDT60901.94988.axf

JavaScript Object Notation format (JSON) in row-major order
http://www.bom.gov.au/fwo/IDT60901/IDT60901.94988.json